Time;durP1;ratioP1;P1;durP2;ratioP2;P2;SDS_P1;SDS_P2;PMS_P1;PMS_P2;Temp;Humidity;BMP_temperature;BMP_pressure;BME280_temperature;BME280_humidity;BME280_pressure;Samples;Min_cycle;Max_cycle;Signal;HPM_P1;HPM_P2
2021/07/28 00:00:40;;;;;;;19.88;9.15;;;;;;;;;;4936991;29;20043;-68
2021/07/28 00:03:06;;;;;;;16.27;8.60;;;;;;;;;;4937108;29;20640;-69
2021/07/28 00:05:32;;;;;;;16.35;8.77;;;;;;;;;;4937017;29;20089;-68
2021/07/28 00:07:58;;;;;;;15.95;8.40;;;;;;;;;;4918430;29;20036;-68
2021/07/28 00:10:24;;;;;;;15.90;8.73;;;;;;;;;;4936900;29;20090;-68
2021/07/28 00:12:50;;;;;;;12.65;8.20;;;;;;;;;;4931667;29;20092;-69
2021/07/28 00:15:16;;;;;;;20.17;8.48;;;;;;;;;;4936384;29;20084;-69
2021/07/28 00:17:54;;;;;;;18.38;8.98;;;;;;;;;;4936950;29;20027;-69
2021/07/28 00:23:14;;;;;;;20.95;9.25;;;;;;;;;;4935113;29;20390;-73
2021/07/28 00:25:40;;;;;;;16.52;8.57;;;;;;;;;;4936291;29;20016;-70
2021/07/28 00:28:06;;;;;;;15.80;9.18;;;;;;;;;;4936685;29;20378;-69
2021/07/28 00:30:33;;;;;;;18.45;9.25;;;;;;;;;;4936681;29;20052;-71
2021/07/28 00:32:59;;;;;;;16.85;9.60;;;;;;;;;;4937077;29;20482;-68
2021/07/28 00:35:25;;;;;;;16.63;8.25;;;;;;;;;;4919276;29;20035;-71
2021/07/28 00:37:54;;;;;;;15.50;8.80;;;;;;;;;;4936342;29;20098;-68
2021/07/28 00:40:20;;;;;;;15.93;8.88;;;;;;;;;;4936186;29;20020;-68
2021/07/28 00:42:46;;;;;;;18.73;8.75;;;;;;;;;;4936173;29;20056;-69
2021/07/28 00:45:12;;;;;;;13.88;8.63;;;;;;;;;;4934807;29;20047;-68
2021/07/28 00:47:38;;;;;;;18.95;8.77;;;;;;;;;;4936199;29;20035;-70
2021/07/28 00:50:05;;;;;;;16.88;8.95;;;;;;;;;;4936072;29;20036;-69
2021/07/28 00:52:37;;;;;;;17.80;8.30;;;;;;;;;;4918681;29;20410;-69
2021/07/28 00:55:04;;;;;;;17.10;8.98;;;;;;;;;;4935707;29;20075;-69
2021/07/28 00:57:31;;;;;;;16.45;8.82;;;;;;;;;;4935958;29;20027;-68
2021/07/28 00:59:57;;;;;;;19.70;9.48;;;;;;;;;;4935712;29;20016;-70
2021/07/28 01:02:23;;;;;;;22.27;9.25;;;;;;;;;;4935886;29;20047;-69
2021/07/28 01:04:49;;;;;;;14.27;8.55;;;;;;;;;;4935770;29;20397;-70
2021/07/28 01:07:15;;;;;;;16.42;9.38;;;;;;;;;;4935467;29;20202;-68
2021/07/28 01:09:41;;;;;;;14.32;8.52;;;;;;;;;;4936025;29;20019;-68
2021/07/28 01:12:08;;;;;;;18.15;9.27;;;;;;;;;;4935584;29;20028;-69
2021/07/28 01:14:34;;;;;;;17.55;9.10;;;;;;;;;;4934734;29;20039;-67
2021/07/28 01:17:01;;;;;;;12.60;9.00;;;;;;;;;;4934593;29;20649;-69
2021/07/28 01:19:41;;;;;;;18.65;9.18;;;;;;;;;;4935610;29;20499;-70
2021/07/28 01:22:07;;;;;;;18.48;9.50;;;;;;;;;;4935646;29;20043;-68
2021/07/28 01:24:34;;;;;;;15.73;9.18;;;;;;;;;;4933629;29;20028;-69
2021/07/28 01:27:02;;;;;;;13.48;9.07;;;;;;;;;;4933788;29;20561;-70
2021/07/28 01:29:29;;;;;;;15.85;9.55;;;;;;;;;;4928670;29;20482;-70
2021/07/28 01:31:56;;;;;;;15.52;8.82;;;;;;;;;;4934722;29;20023;-74
2021/07/28 01:34:22;;;;;;;16.98;8.52;;;;;;;;;;4935386;29;20066;-69
2021/07/28 01:36:48;;;;;;;18.02;9.32;;;;;;;;;;4934822;29;20478;-73
2021/07/28 01:39:14;;;;;;;17.63;9.55;;;;;;;;;;4934813;29;20055;-73
2021/07/28 01:41:41;;;;;;;18.30;9.27;;;;;;;;;;4925459;29;20259;-67
2021/07/28 01:44:07;;;;;;;13.88;9.18;;;;;;;;;;4916336;29;20070;-71
2021/07/28 01:46:33;;;;;;;14.02;9.38;;;;;;;;;;4915635;29;20038;-68
2021/07/28 01:48:59;;;;;;;16.23;9.10;;;;;;;;;;4911928;29;20033;-68
2021/07/28 01:51:25;;;;;;;14.07;9.50;;;;;;;;;;4916116;29;20028;-71
2021/07/28 01:53:51;;;;;;;18.13;9.70;;;;;;;;;;4920057;29;20047;-71
2021/07/28 01:56:18;;;;;;;15.73;9.77;;;;;;;;;;4915760;29;20052;-71
2021/07/28 01:58:53;;;;;;;20.08;9.77;;;;;;;;;;4915761;29;20390;-71
2021/07/28 02:01:19;;;;;;;19.27;9.70;;;;;;;;;;4914012;29;20027;-69
2021/07/28 02:03:45;;;;;;;20.92;9.95;;;;;;;;;;4915689;29;20570;-72
2021/07/28 02:06:12;;;;;;;18.02;9.60;;;;;;;;;;4915476;29;20111;-67
2021/07/28 02:08:38;;;;;;;22.13;9.95;;;;;;;;;;4916010;29;20020;-70
2021/07/28 02:11:04;;;;;;;20.52;9.60;;;;;;;;;;4914395;29;20039;-67
2021/07/28 02:13:30;;;;;;;21.70;10.30;;;;;;;;;;4922876;29;20020;-67
2021/07/28 02:15:56;;;;;;;18.23;10.20;;;;;;;;;;4920444;29;20036;-68
2021/07/28 02:18:23;;;;;;;22.60;10.25;;;;;;;;;;4916159;29;20031;-70
2021/07/28 02:20:49;;;;;;;19.15;9.55;;;;;;;;;;4915713;29;20027;-73
2021/07/28 02:23:15;;;;;;;19.50;9.77;;;;;;;;;;4915470;29;20075;-69
2021/07/28 02:25:41;;;;;;;21.27;9.27;;;;;;;;;;4918669;29;20035;-68
2021/07/28 02:28:07;;;;;;;21.67;10.10;;;;;;;;;;4916104;29;20031;-69
2021/07/28 02:30:33;;;;;;;18.20;9.55;;;;;;;;;;4915696;29;20827;-69
2021/07/28 02:32:59;;;;;;;17.23;9.70;;;;;;;;;;4915856;29;20398;-74
2021/07/28 02:35:25;;;;;;;21.23;10.18;;;;;;;;;;4915377;29;20024;-68
2021/07/28 02:37:51;;;;;;;22.80;10.75;;;;;;;;;;4915500;29;20032;-69
2021/07/28 02:40:19;;;;;;;18.10;10.63;;;;;;;;;;4915640;29;20055;-69
2021/07/28 02:42:45;;;;;;;25.48;9.90;;;;;;;;;;4940907;29;20375;-70
2021/07/28 02:45:11;;;;;;;22.35;9.90;;;;;;;;;;4932065;29;20034;-69
2021/07/28 02:47:38;;;;;;;26.17;10.15;;;;;;;;;;4917554;29;20024;-70
2021/07/28 02:50:04;;;;;;;19.38;10.23;;;;;;;;;;4938798;29;20023;-70
2021/07/28 02:52:31;;;;;;;18.80;9.90;;;;;;;;;;4938015;29;20482;-68
2021/07/28 02:55:02;;;;;;;22.23;10.65;;;;;;;;;;4934784;29;21185;-67
2021/07/28 02:57:29;;;;;;;19.17;11.27;;;;;;;;;;4933616;29;20156;-68
2021/07/28 02:59:55;;;;;;;22.27;10.55;;;;;;;;;;4937298;29;20031;-69
2021/07/28 03:02:21;;;;;;;21.13;10.85;;;;;;;;;;4934624;29;20036;-75
2021/07/28 03:04:47;;;;;;;23.35;10.77;;;;;;;;;;4937432;29;20031;-73
2021/07/28 03:07:13;;;;;;;21.45;10.15;;;;;;;;;;4938024;29;20036;-69
2021/07/28 03:09:39;;;;;;;16.92;9.73;;;;;;;;;;4936794;29;20032;-70
2021/07/28 03:12:05;;;;;;;16.63;9.95;;;;;;;;;;4938451;29;20043;-69
2021/07/28 03:14:31;;;;;;;18.42;9.60;;;;;;;;;;4936658;29;20182;-72
2021/07/28 03:16:57;;;;;;;17.55;9.93;;;;;;;;;;4938268;29;20028;-70
2021/07/28 03:19:23;;;;;;;21.17;10.23;;;;;;;;;;4927409;29;20036;-69
2021/07/28 03:21:50;;;;;;;14.93;9.93;;;;;;;;;;4946105;29;20103;-69
2021/07/28 03:24:17;;;;;;;19.92;10.05;;;;;;;;;;4937662;29;20545;-72
2021/07/28 03:26:43;;;;;;;22.90;10.75;;;;;;;;;;4937672;29;20032;-76
2021/07/28 03:29:09;;;;;;;22.52;10.02;;;;;;;;;;4934344;29;20040;-74
2021/07/28 03:31:35;;;;;;;19.20;9.88;;;;;;;;;;4936528;29;20083;-74
2021/07/28 03:34:01;;;;;;;19.55;10.20;;;;;;;;;;4938076;29;20032;-72
2021/07/28 03:36:27;;;;;;;27.20;10.40;;;;;;;;;;4937375;29;20038;-69
2021/07/28 03:38:53;;;;;;;18.65;10.48;;;;;;;;;;4937586;29;20087;-68
2021/07/28 03:41:19;;;;;;;21.80;10.05;;;;;;;;;;4929005;29;20105;-71
2021/07/28 03:43:45;;;;;;;20.58;10.18;;;;;;;;;;4932059;29;20046;-69
2021/07/28 03:46:11;;;;;;;19.50;9.70;;;;;;;;;;4918364;29;20052;-68
2021/07/28 03:48:37;;;;;;;17.50;10.27;;;;;;;;;;4918412;29;20036;-68
2021/07/28 03:51:03;;;;;;;24.25;10.88;;;;;;;;;;4916977;29;20056;-70
2021/07/28 03:53:29;;;;;;;17.98;10.23;;;;;;;;;;4918488;29;20032;-68
2021/07/28 03:55:55;;;;;;;18.63;10.50;;;;;;;;;;4924692;29;20056;-67
2021/07/28 03:58:21;;;;;;;24.90;10.13;;;;;;;;;;4918424;29;20028;-68
2021/07/28 04:00:48;;;;;;;21.23;10.02;;;;;;;;;;4917373;29;20039;-69
2021/07/28 04:03:14;;;;;;;28.60;9.82;;;;;;;;;;4914934;29;20044;-67
2021/07/28 04:05:40;;;;;;;24.98;10.57;;;;;;;;;;4917701;29;20020;-74
2021/07/28 04:08:06;;;;;;;25.38;10.45;;;;;;;;;;4919049;29;20033;-68
2021/07/28 04:10:32;;;;;;;19.90;9.73;;;;;;;;;;4923320;29;20020;-67
2021/07/28 04:13:00;;;;;;;17.48;9.98;;;;;;;;;;4917302;29;20514;-75
2021/07/28 04:15:26;;;;;;;20.33;10.15;;;;;;;;;;4925610;29;20056;-73
2021/07/28 04:17:52;;;;;;;21.73;10.73;;;;;;;;;;4917679;29;20473;-76
2021/07/28 04:20:18;;;;;;;19.15;10.30;;;;;;;;;;4900002;29;20801;-73
2021/07/28 04:22:44;;;;;;;21.33;9.38;;;;;;;;;;4916330;29;20063;-66
2021/07/28 04:25:11;;;;;;;20.98;10.35;;;;;;;;;;4919906;29;20078;-69
2021/07/28 04:27:37;;;;;;;20.38;10.00;;;;;;;;;;4920148;29;20477;-69
2021/07/28 04:30:05;;;;;;;27.08;10.68;;;;;;;;;;4917226;29;20114;-77
2021/07/28 04:32:31;;;;;;;18.92;10.20;;;;;;;;;;4917083;29;20508;-79
2021/07/28 04:34:57;;;;;;;21.65;10.60;;;;;;;;;;4916498;29;20376;-76
2021/07/28 04:37:23;;;;;;;27.55;10.63;;;;;;;;;;4914282;29;20794;-71
2021/07/28 04:39:49;;;;;;;26.55;10.77;;;;;;;;;;4910479;29;20426;-73
2021/07/28 04:42:15;;;;;;;18.33;10.70;;;;;;;;;;4929953;29;20103;-70
2021/07/28 04:44:41;;;;;;;23.10;10.60;;;;;;;;;;4935556;29;20082;-76
2021/07/28 04:47:07;;;;;;;19.27;9.85;;;;;;;;;;4929516;29;20020;-70
2021/07/28 04:49:33;;;;;;;26.30;11.52;;;;;;;;;;4932815;29;20028;-76
2021/07/28 04:51:59;;;;;;;16.33;10.15;;;;;;;;;;4935361;29;20043;-76
2021/07/28 04:54:25;;;;;;;28.92;11.00;;;;;;;;;;4934657;29;20032;-79
2021/07/28 04:56:51;;;;;;;20.63;10.30;;;;;;;;;;4934991;29;20031;-77
2021/07/28 04:59:18;;;;;;;29.25;11.00;;;;;;;;;;4935827;29;20024;-67
2021/07/28 05:01:44;;;;;;;22.40;11.20;;;;;;;;;;4934501;29;20371;-68
2021/07/28 05:04:11;;;;;;;25.23;10.95;;;;;;;;;;4936286;29;20032;-69
2021/07/28 05:06:40;;;;;;;19.90;9.77;;;;;;;;;;4935584;29;20030;-67
2021/07/28 05:09:06;;;;;;;28.55;11.23;;;;;;;;;;4934851;29;20028;-68
2021/07/28 05:11:32;;;;;;;20.23;11.00;;;;;;;;;;4934321;29;20095;-68
2021/07/28 05:13:58;;;;;;;26.17;10.52;;;;;;;;;;4935269;29;20039;-67
2021/07/28 05:16:24;;;;;;;20.70;10.20;;;;;;;;;;4936288;29;20080;-73
2021/07/28 05:18:50;;;;;;;16.98;9.63;;;;;;;;;;4943340;29;20545;-71
2021/07/28 05:21:16;;;;;;;23.48;10.95;;;;;;;;;;4934999;29;20030;-68
2021/07/28 05:23:44;;;;;;;23.17;9.95;;;;;;;;;;4934907;29;20047;-68
2021/07/28 05:26:10;;;;;;;21.38;10.23;;;;;;;;;;4934379;29;20032;-71
2021/07/28 05:28:36;;;;;;;22.65;10.40;;;;;;;;;;4935097;29;20107;-69
2021/07/28 05:31:02;;;;;;;22.30;10.85;;;;;;;;;;4932279;29;20028;-71
2021/07/28 05:33:28;;;;;;;22.02;10.52;;;;;;;;;;4935482;29;20024;-70
2021/07/28 05:35:54;;;;;;;25.05;10.52;;;;;;;;;;4940069;29;20027;-76
2021/07/28 05:38:20;;;;;;;25.88;11.63;;;;;;;;;;4936631;29;20024;-69
2021/07/28 05:40:46;;;;;;;22.48;11.27;;;;;;;;;;4935206;29;20035;-70
2021/07/28 05:43:13;;;;;;;24.25;10.30;;;;;;;;;;4934765;29;20040;-74
2021/07/28 05:45:39;;;;;;;25.30;10.52;;;;;;;;;;4934441;29;20020;-68
2021/07/28 05:48:05;;;;;;;22.45;10.30;;;;;;;;;;4934573;29;20118;-69
2021/07/28 05:50:31;;;;;;;20.35;11.15;;;;;;;;;;4934578;29;20386;-70
2021/07/28 05:52:57;;;;;;;29.38;10.75;;;;;;;;;;4934248;29;20111;-70
2021/07/28 05:55:23;;;;;;;23.95;9.75;;;;;;;;;;4934503;29;20573;-70
2021/07/28 05:57:53;;;;;;;24.83;10.10;;;;;;;;;;4935418;29;20036;-69
2021/07/28 06:00:19;;;;;;;22.33;9.98;;;;;;;;;;4934473;29;20035;-70
2021/07/28 06:02:45;;;;;;;19.30;9.48;;;;;;;;;;4933475;29;20070;-69
2021/07/28 06:05:11;;;;;;;24.45;10.55;;;;;;;;;;4934086;29;20024;-72
2021/07/28 06:07:37;;;;;;;28.58;9.60;;;;;;;;;;4934691;29;20032;-67
2021/07/28 06:10:04;;;;;;;22.70;9.82;;;;;;;;;;4934031;29;20020;-81
2021/07/28 06:12:30;;;;;;;21.55;9.40;;;;;;;;;;4934943;29;20055;-69
2021/07/28 06:14:56;;;;;;;19.17;9.73;;;;;;;;;;4935628;29;20358;-71
2021/07/28 06:17:22;;;;;;;22.15;9.68;;;;;;;;;;4936590;29;20028;-69
2021/07/28 06:19:48;;;;;;;17.85;9.55;;;;;;;;;;4932995;29;20031;-71
2021/07/28 06:22:14;;;;;;;21.23;10.00;;;;;;;;;;4935507;29;20050;-69
2021/07/28 06:24:40;;;;;;;21.48;10.02;;;;;;;;;;4929554;29;20027;-73
2021/07/28 06:27:06;;;;;;;25.48;11.27;;;;;;;;;;4932707;29;20051;-68
2021/07/28 06:29:32;;;;;;;23.40;10.52;;;;;;;;;;4934978;29;20374;-66
2021/07/28 06:31:58;;;;;;;19.77;9.90;;;;;;;;;;4933814;29;20063;-68
2021/07/28 06:34:24;;;;;;;18.92;9.65;;;;;;;;;;4934784;29;20075;-68
2021/07/28 06:36:50;;;;;;;20.60;10.52;;;;;;;;;;4936990;29;20035;-69
2021/07/28 06:39:16;;;;;;;20.45;9.75;;;;;;;;;;4944872;29;20067;-68
2021/07/28 06:41:42;;;;;;;28.00;10.68;;;;;;;;;;4933501;29;20506;-68
2021/07/28 06:44:08;;;;;;;34.05;10.68;;;;;;;;;;4934529;29;20039;-68
2021/07/28 06:46:34;;;;;;;27.98;10.73;;;;;;;;;;4934779;29;20034;-68
2021/07/28 06:49:01;;;;;;;25.48;10.38;;;;;;;;;;4934433;29;20466;-69
2021/07/28 06:51:29;;;;;;;23.55;10.40;;;;;;;;;;4933887;29;20059;-68
2021/07/28 06:53:55;;;;;;;23.42;10.45;;;;;;;;;;4933763;29;20032;-67
2021/07/28 06:56:21;;;;;;;19.73;10.32;;;;;;;;;;4934327;29;20035;-69
2021/07/28 06:58:47;;;;;;;18.73;10.27;;;;;;;;;;4934542;29;20027;-68
2021/07/28 07:01:13;;;;;;;26.38;10.75;;;;;;;;;;4936731;28;20166;-68
2021/07/28 07:03:39;;;;;;;23.08;11.15;;;;;;;;;;4939225;29;20039;-67
2021/07/28 07:06:06;;;;;;;32.00;11.02;;;;;;;;;;4933865;29;20488;-66
2021/07/28 07:08:32;;;;;;;25.63;10.13;;;;;;;;;;4934341;29;20443;-68
2021/07/28 07:10:58;;;;;;;31.73;11.73;;;;;;;;;;4917114;29;20038;-68
2021/07/28 07:13:24;;;;;;;27.08;10.32;;;;;;;;;;4934643;29;20083;-68
2021/07/28 07:15:50;;;;;;;24.58;10.00;;;;;;;;;;4933629;29;20026;-68
2021/07/28 07:18:16;;;;;;;26.88;10.02;;;;;;;;;;4934347;29;20059;-69
2021/07/28 07:20:43;;;;;;;25.70;10.95;;;;;;;;;;4935655;29;20058;-67
2021/07/28 07:23:09;;;;;;;25.98;10.32;;;;;;;;;;4937663;29;20040;-66
2021/07/28 07:25:35;;;;;;;20.08;9.65;;;;;;;;;;4933754;29;20493;-68
2021/07/28 07:28:05;;;;;;;20.20;10.05;;;;;;;;;;4932986;29;20039;-67
2021/07/28 07:30:31;;;;;;;21.75;10.30;;;;;;;;;;4934031;29;20028;-69
2021/07/28 07:35:42;;;;;;;26.08;11.07;;;;;;;;;;4937331;29;20450;-68
2021/07/28 07:38:08;;;;;;;21.38;10.50;;;;;;;;;;4937681;29;20031;-67
2021/07/28 07:40:34;;;;;;;23.30;10.07;;;;;;;;;;4936364;29;20047;-69
2021/07/28 07:43:00;;;;;;;23.83;10.02;;;;;;;;;;4937372;29;20040;-67
2021/07/28 07:45:26;;;;;;;21.38;10.02;;;;;;;;;;4936611;29;20505;-68
2021/07/28 07:47:52;;;;;;;20.52;9.48;;;;;;;;;;4937632;29;20054;-68
2021/07/28 07:50:18;;;;;;;20.60;9.90;;;;;;;;;;4936502;29;20042;-68
2021/07/28 07:52:44;;;;;;;23.85;10.05;;;;;;;;;;4937308;29;20107;-68
2021/07/28 07:55:11;;;;;;;23.13;10.00;;;;;;;;;;4936787;29;20027;-68
2021/07/28 07:57:37;;;;;;;20.05;9.55;;;;;;;;;;4936716;29;20030;-67
2021/07/28 08:00:04;;;;;;;29.13;9.85;;;;;;;;;;4936969;29;20034;-67
2021/07/28 08:02:32;;;;;;;27.48;9.57;;;;;;;;;;4935708;29;20039;-67
2021/07/28 08:04:58;;;;;;;24.90;9.52;;;;;;;;;;4936833;29;20046;-69
2021/07/28 08:07:24;;;;;;;19.92;10.23;;;;;;;;;;4936297;29;20031;-69
2021/07/28 08:09:50;;;;;;;22.90;9.88;;;;;;;;;;4937137;29;20038;-68
2021/07/28 08:12:16;;;;;;;20.27;9.95;;;;;;;;;;4936951;29;20039;-69
2021/07/28 08:14:42;;;;;;;31.77;10.60;;;;;;;;;;4936574;29;20039;-69
2021/07/28 08:17:08;;;;;;;25.67;11.05;;;;;;;;;;4940241;29;20035;-70
2021/07/28 08:19:34;;;;;;;26.73;10.38;;;;;;;;;;4935805;29;20466;-69
2021/07/28 08:22:00;;;;;;;23.40;10.63;;;;;;;;;;4936118;29;20039;-69
2021/07/28 08:24:26;;;;;;;30.02;10.80;;;;;;;;;;4936619;29;20086;-69
2021/07/28 08:26:52;;;;;;;34.42;11.20;;;;;;;;;;4936473;29;20031;-68
2021/07/28 08:29:18;;;;;;;31.52;10.57;;;;;;;;;;4936528;29;20110;-68
2021/07/28 08:31:44;;;;;;;31.02;10.57;;;;;;;;;;4936357;29;20043;-69
2021/07/28 08:34:10;;;;;;;22.85;10.02;;;;;;;;;;4936591;29;20024;-70
2021/07/28 08:36:36;;;;;;;32.97;10.90;;;;;;;;;;4935691;29;20059;-68
2021/07/28 08:39:03;;;;;;;24.33;10.45;;;;;;;;;;4935799;29;20032;-70
2021/07/28 08:41:30;;;;;;;20.55;10.68;;;;;;;;;;4935820;29;20172;-68
2021/07/28 08:43:59;;;;;;;24.25;9.75;;;;;;;;;;4936475;29;20035;-70
2021/07/28 08:46:26;;;;;;;21.20;9.60;;;;;;;;;;4935925;29;20035;-69
2021/07/28 08:48:52;;;;;;;24.23;10.80;;;;;;;;;;4935644;29;20042;-68
2021/07/28 08:51:18;;;;;;;21.90;9.63;;;;;;;;;;4936446;29;20234;-70
2021/07/28 08:53:44;;;;;;;22.58;9.88;;;;;;;;;;4935885;29;20058;-69
2021/07/28 08:56:10;;;;;;;25.83;9.68;;;;;;;;;;4935718;29;20513;-68
2021/07/28 08:58:38;;;;;;;29.05;10.25;;;;;;;;;;4935665;29;20469;-68
2021/07/28 09:01:05;;;;;;;25.40;9.80;;;;;;;;;;4934890;29;20039;-70
2021/07/28 09:03:32;;;;;;;22.73;10.00;;;;;;;;;;4936113;29;20040;-69
2021/07/28 09:06:01;;;;;;;21.10;9.07;;;;;;;;;;4935055;29;20078;-68
2021/07/28 09:08:31;;;;;;;22.25;8.98;;;;;;;;;;4934339;29;20058;-69
2021/07/28 09:11:06;;;;;;;23.55;9.35;;;;;;;;;;4935470;29;20063;-70
2021/07/28 09:13:36;;;;;;;25.17;10.57;;;;;;;;;;4932124;29;20466;-70
2021/07/28 09:16:06;;;;;;;19.10;8.45;;;;;;;;;;4933592;29;20039;-70
2021/07/28 09:18:38;;;;;;;28.27;9.48;;;;;;;;;;4934247;29;20457;-70
2021/07/28 09:21:09;;;;;;;25.07;9.10;;;;;;;;;;4915455;29;20090;-67
2021/07/28 09:23:37;;;;;;;26.10;9.73;;;;;;;;;;4934372;29;20776;-67
2021/07/28 09:26:05;;;;;;;24.17;10.32;;;;;;;;;;4934059;29;20063;-67
2021/07/28 09:28:32;;;;;;;23.90;9.95;;;;;;;;;;4933375;29;20024;-67
2021/07/28 09:30:58;;;;;;;21.63;9.43;;;;;;;;;;4935054;29;20031;-67
2021/07/28 09:33:24;;;;;;;21.58;9.15;;;;;;;;;;4935466;29;20027;-72
2021/07/28 09:35:50;;;;;;;21.42;8.65;;;;;;;;;;4933896;29;20034;-70
2021/07/28 09:38:33;;;;;;;25.23;9.65;;;;;;;;;;4932855;29;20024;-76
2021/07/28 09:41:18;;;;;;;22.13;9.40;;;;;;;;;;4929960;29;20542;-75
2021/07/28 09:43:48;;;;;;;29.30;10.07;;;;;;;;;;4914525;29;20138;-66
2021/07/28 09:46:21;;;;;;;21.05;9.75;;;;;;;;;;4915906;29;20024;-72
2021/07/28 09:48:48;;;;;;;22.27;9.38;;;;;;;;;;4914938;29;20035;-73
2021/07/28 09:51:46;;;;;;;20.00;8.95;;;;;;;;;;4915259;29;20048;-68
2021/07/28 09:54:15;;;;;;;22.70;9.88;;;;;;;;;;4874337;29;20424;-69
2021/07/28 09:56:46;;;;;;;22.35;9.40;;;;;;;;;;4875826;29;20479;-70
2021/07/28 09:59:12;;;;;;;18.48;9.07;;;;;;;;;;4874248;29;20041;-69
2021/07/28 10:01:38;;;;;;;20.90;9.05;;;;;;;;;;4874710;29;20033;-67
2021/07/28 10:04:05;;;;;;;26.60;9.45;;;;;;;;;;4874161;29;20041;-71
2021/07/28 10:06:52;;;;;;;24.65;9.88;;;;;;;;;;4874870;29;20447;-71
2021/07/28 10:09:20;;;;;;;21.23;9.40;;;;;;;;;;4874329;29;20029;-72
2021/07/28 10:11:47;;;;;;;22.05;9.02;;;;;;;;;;4875690;29;20041;-71
2021/07/28 10:14:20;;;;;;;23.35;9.20;;;;;;;;;;4876231;29;20153;-69
2021/07/28 10:16:47;;;;;;;20.92;9.60;;;;;;;;;;4877748;29;20037;-78
2021/07/28 10:19:15;;;;;;;23.80;10.15;;;;;;;;;;4875526;29;20048;-68
2021/07/28 10:21:41;;;;;;;21.55;10.80;;;;;;;;;;4876570;29;20033;-71
2021/07/28 10:24:09;;;;;;;20.83;10.68;;;;;;;;;;4875058;29;20490;-70
2021/07/28 10:26:38;;;;;;;21.33;9.93;;;;;;;;;;4875012;29;20029;-75
2021/07/28 10:29:04;;;;;;;20.02;10.20;;;;;;;;;;4874727;29;20074;-73
2021/07/28 10:31:43;;;;;;;24.13;10.00;;;;;;;;;;4909841;29;20046;-72
2021/07/28 10:34:20;;;;;;;32.78;11.57;;;;;;;;;;4914837;29;20024;-72
2021/07/28 10:36:48;;;;;;;25.42;10.25;;;;;;;;;;4914644;29;20032;-72
2021/07/28 10:39:34;;;;;;;33.40;11.27;;;;;;;;;;4915703;29;20043;-71
2021/07/28 10:42:01;;;;;;;22.77;10.40;;;;;;;;;;4913721;29;20059;-74
2021/07/28 10:44:27;;;;;;;23.20;10.57;;;;;;;;;;4934579;29;20036;-72
2021/07/28 10:46:53;;;;;;;27.95;10.85;;;;;;;;;;4934029;29;20036;-72
2021/07/28 10:49:35;;;;;;;25.35;10.65;;;;;;;;;;4933327;29;20501;-73
2021/07/28 10:52:01;;;;;;;28.65;10.50;;;;;;;;;;4934366;29;20036;-71
2021/07/28 10:54:48;;;;;;;25.27;10.23;;;;;;;;;;4934802;29;20055;-72
2021/07/28 10:57:44;;;;;;;26.45;9.65;;;;;;;;;;4925955;29;20043;-72
2021/07/28 11:00:11;;;;;;;22.77;10.07;;;;;;;;;;4924425;29;20028;-71
2021/07/28 11:02:52;;;;;;;24.63;10.27;;;;;;;;;;4931472;29;20489;-73
2021/07/28 11:05:19;;;;;;;22.05;10.10;;;;;;;;;;4933499;29;20032;-74
2021/07/28 11:08:07;;;;;;;21.50;9.63;;;;;;;;;;4935313;29;20028;-70
2021/07/28 11:10:34;;;;;;;25.02;10.55;;;;;;;;;;4936902;29;20023;-72
2021/07/28 11:13:04;;;;;;;24.67;10.07;;;;;;;;;;4936375;29;20024;-71
2021/07/28 11:15:30;;;;;;;20.05;9.48;;;;;;;;;;4937099;29;20023;-68
2021/07/28 11:17:56;;;;;;;22.70;9.55;;;;;;;;;;4935602;29;20131;-73
2021/07/28 11:20:34;;;;;;;22.08;8.43;;;;;;;;;;4935858;29;20024;-74
2021/07/28 11:23:18;;;;;;;23.08;10.10;;;;;;;;;;4937170;29;20046;-81
2021/07/28 11:25:44;;;;;;;20.17;9.45;;;;;;;;;;4935368;29;20039;-72
2021/07/28 11:28:10;;;;;;;20.30;10.05;;;;;;;;;;4938372;29;20028;-74
2021/07/28 11:30:37;;;;;;;23.02;9.32;;;;;;;;;;4936836;29;20033;-78
2021/07/28 11:33:16;;;;;;;21.73;9.73;;;;;;;;;;4938846;29;20038;-73
2021/07/28 11:35:43;;;;;;;24.25;9.90;;;;;;;;;;4919006;29;20043;-71
2021/07/28 11:38:15;;;;;;;20.58;9.68;;;;;;;;;;4936717;29;20545;-70
2021/07/28 11:40:49;;;;;;;21.23;9.65;;;;;;;;;;4936561;29;20054;-70
2021/07/28 11:43:28;;;;;;;21.13;8.70;;;;;;;;;;4935836;29;20075;-71
2021/07/28 11:45:58;;;;;;;21.17;8.90;;;;;;;;;;4936755;29;20020;-72
2021/07/28 11:48:27;;;;;;;16.73;8.57;;;;;;;;;;4937166;29;20118;-68
2021/07/28 11:50:53;;;;;;;14.73;8.13;;;;;;;;;;4939727;29;20055;-68
2021/07/28 11:53:28;;;;;;;22.88;9.13;;;;;;;;;;4936018;29;20059;-69
2021/07/28 11:55:55;;;;;;;22.40;8.38;;;;;;;;;;4936572;29;20032;-69
2021/07/28 11:58:22;;;;;;;22.02;8.65;;;;;;;;;;4936975;29;20442;-69
2021/07/28 12:00:48;;;;;;;20.60;9.38;;;;;;;;;;4934288;29;20075;-70
2021/07/28 12:03:24;;;;;;;15.27;8.82;;;;;;;;;;4935666;29;20036;-70
2021/07/28 12:06:02;;;;;;;20.52;9.18;;;;;;;;;;4936646;29;20032;-69
2021/07/28 12:08:32;;;;;;;20.00;9.07;;;;;;;;;;4935274;29;20490;-71
2021/07/28 12:11:02;;;;;;;17.95;8.32;;;;;;;;;;4936322;29;20367;-71
2021/07/28 12:13:38;;;;;;;20.33;7.80;;;;;;;;;;4913551;29;20110;-69
2021/07/28 12:16:04;;;;;;;21.15;8.90;;;;;;;;;;4935969;29;20055;-68
2021/07/28 12:18:43;;;;;;;22.80;8.63;;;;;;;;;;4938825;29;20031;-69
2021/07/28 12:21:10;;;;;;;17.95;8.10;;;;;;;;;;4936659;29;20082;-72
2021/07/28 12:23:36;;;;;;;18.58;8.18;;;;;;;;;;4936514;29;20031;-68
2021/07/28 12:26:03;;;;;;;19.45;7.53;;;;;;;;;;4938657;29;20502;-69
2021/07/28 12:28:48;;;;;;;19.90;7.32;;;;;;;;;;4935326;29;20035;-68
2021/07/28 12:31:29;;;;;;;17.35;7.53;;;;;;;;;;4935852;29;20035;-76
2021/07/28 12:33:56;;;;;;;21.08;7.53;;;;;;;;;;4934844;29;20028;-71
2021/07/28 12:36:26;;;;;;;14.70;7.13;;;;;;;;;;4936951;29;20055;-70
2021/07/28 12:38:53;;;;;;;16.30;7.43;;;;;;;;;;4924195;29;20043;-71
2021/07/28 12:41:19;;;;;;;17.00;7.50;;;;;;;;;;4944508;28;20130;-76
2021/07/28 12:43:45;;;;;;;16.45;7.90;;;;;;;;;;4936311;29;20040;-70
2021/07/28 12:46:11;;;;;;;22.27;7.88;;;;;;;;;;4936426;29;20032;-72
2021/07/28 12:48:38;;;;;;;21.40;7.18;;;;;;;;;;4935649;29;20024;-71
2021/07/28 12:51:05;;;;;;;21.13;8.48;;;;;;;;;;4933579;29;20024;-73
2021/07/28 12:53:34;;;;;;;19.23;7.72;;;;;;;;;;4937717;29;20070;-67
2021/07/28 12:56:00;;;;;;;18.45;7.60;;;;;;;;;;4934573;29;20027;-71
2021/07/28 12:58:26;;;;;;;18.50;7.70;;;;;;;;;;4942797;29;20092;-68
2021/07/28 13:00:56;;;;;;;15.55;7.13;;;;;;;;;;4935075;29;20035;-73
2021/07/28 13:03:25;;;;;;;16.27;7.50;;;;;;;;;;4934186;29;20071;-73
2021/07/28 13:05:55;;;;;;;16.85;8.05;;;;;;;;;;4934993;29;20020;-71
2021/07/28 13:08:21;;;;;;;13.23;7.50;;;;;;;;;;4934232;29;20032;-70
2021/07/28 13:10:48;;;;;;;19.75;7.97;;;;;;;;;;4935715;29;20023;-71
2021/07/28 13:13:15;;;;;;;21.20;7.70;;;;;;;;;;4935077;29;20110;-71
2021/07/28 13:15:42;;;;;;;19.65;8.00;;;;;;;;;;4948847;29;20074;-72
2021/07/28 13:18:08;;;;;;;16.92;7.60;;;;;;;;;;4937199;29;20035;-72
2021/07/28 13:20:34;;;;;;;19.55;7.30;;;;;;;;;;4935571;29;20044;-73
2021/07/28 13:23:02;;;;;;;19.98;7.90;;;;;;;;;;4933965;29;20389;-71
2021/07/28 13:25:28;;;;;;;16.77;7.88;;;;;;;;;;4934851;29;20035;-71
2021/07/28 13:27:54;;;;;;;17.33;7.28;;;;;;;;;;4934593;29;20435;-71
2021/07/28 13:30:20;;;;;;;15.77;7.32;;;;;;;;;;4935088;29;20118;-71
2021/07/28 13:32:46;;;;;;;19.63;7.50;;;;;;;;;;4918716;29;20491;-71
2021/07/28 13:35:13;;;;;;;21.17;7.72;;;;;;;;;;4935298;29;20024;-71
2021/07/28 13:37:39;;;;;;;18.95;7.75;;;;;;;;;;4936290;29;20035;-71
2021/07/28 13:40:10;;;;;;;17.20;7.35;;;;;;;;;;4935137;29;20034;-71
2021/07/28 13:42:40;;;;;;;20.58;7.55;;;;;;;;;;4934321;29;20059;-71
2021/07/28 13:45:07;;;;;;;16.42;7.40;;;;;;;;;;4935142;29;20038;-71
2021/07/28 13:47:34;;;;;;;20.10;6.93;;;;;;;;;;4933888;29;20046;-71
2021/07/28 13:50:03;;;;;;;17.73;7.15;;;;;;;;;;4931962;29;20035;-72
2021/07/28 13:52:29;;;;;;;15.30;7.32;;;;;;;;;;4933144;29;20059;-69
2021/07/28 13:54:55;;;;;;;19.23;6.72;;;;;;;;;;4937024;29;20032;-72
2021/07/28 13:57:21;;;;;;;18.38;7.30;;;;;;;;;;4934402;29;20032;-69
2021/07/28 13:59:47;;;;;;;19.17;7.40;;;;;;;;;;4933936;29;20059;-69
2021/07/28 14:02:15;;;;;;;20.02;6.60;;;;;;;;;;4933057;29;20043;-69
2021/07/28 14:04:41;;;;;;;23.38;7.18;;;;;;;;;;4934499;29;20110;-67
2021/07/28 14:07:08;;;;;;;15.82;7.65;;;;;;;;;;4934517;29;20054;-71
2021/07/28 14:09:34;;;;;;;18.75;8.05;;;;;;;;;;4915823;29;20032;-71
2021/07/28 14:12:04;;;;;;;20.77;8.68;;;;;;;;;;4941204;29;20027;-73
2021/07/28 14:14:31;;;;;;;13.95;8.07;;;;;;;;;;4934866;29;20482;-69
2021/07/28 14:16:57;;;;;;;18.27;7.72;;;;;;;;;;4936131;29;20023;-69
2021/07/28 14:19:23;;;;;;;19.38;8.40;;;;;;;;;;4933023;29;20039;-67
2021/07/28 14:21:49;;;;;;;19.92;7.40;;;;;;;;;;4937931;29;20027;-68
2021/07/28 14:24:16;;;;;;;18.60;7.85;;;;;;;;;;4933214;29;20043;-68
2021/07/28 14:26:42;;;;;;;18.60;7.95;;;;;;;;;;4934243;29;20082;-68
2021/07/28 14:29:09;;;;;;;19.25;7.35;;;;;;;;;;4933846;29;20086;-68
2021/07/28 14:31:35;;;;;;;17.60;7.53;;;;;;;;;;4933432;29;20042;-68